Time;durP1;ratioP1;P1;durP2;ratioP2;P2;SDS_P1;SDS_P2;PMS_P1;PMS_P2;Temp;Humidity;BMP_temperature;BMP_pressure;BME280_temperature;BME280_humidity;BME280_pressure;Samples;Min_cycle;Max_cycle;Signal;HPM_P1;HPM_P2
2023/04/04 00:00:51;;;;;;;5.20;2.10;;;;;;;-145.18;100.00;60484.78;5013181;28;20072;-67
2023/04/04 00:03:16;;;;;;;5.77;2.50;;;;;;;-145.18;100.00;60484.78;5013376;28;20037;-68
2023/04/04 00:05:42;;;;;;;9.57;2.47;;;;;;;-145.18;100.00;60484.78;5013092;28;20037;-67
2023/04/04 00:08:07;;;;;;;5.20;2.00;;;;;;;-145.18;100.00;60484.78;5016235;28;20076;-68
2023/04/04 00:10:33;;;;;;;7.13;2.10;;;;;;;-145.18;100.00;60484.78;5014324;28;20528;-67
2023/04/04 00:12:58;;;;;;;7.57;2.57;;;;;;;-145.18;100.00;60484.78;5028114;28;20030;-67
2023/04/04 00:15:24;;;;;;;7.33;2.50;;;;;;;-145.18;100.00;60484.78;5013066;28;20052;-67
2023/04/04 00:17:50;;;;;;;7.33;2.37;;;;;;;-145.18;100.00;60484.78;5013752;28;20053;-67
2023/04/04 00:20:16;;;;;;;5.43;2.50;;;;;;;-145.18;100.00;60484.78;5012480;28;20037;-67
2023/04/04 00:22:42;;;;;;;5.37;2.17;;;;;;;-145.18;100.00;60484.78;5012561;28;20505;-67
2023/04/04 00:25:08;;;;;;;8.80;2.53;;;;;;;-145.18;100.00;60484.78;5012628;28;20371;-68
2023/04/04 00:27:34;;;;;;;6.37;2.37;;;;;;;-145.18;100.00;60484.78;5013708;28;20036;-67
2023/04/04 00:29:59;;;;;;;5.80;2.10;;;;;;;-145.18;100.00;60484.78;5012295;28;20026;-67
2023/04/04 00:32:24;;;;;;;3.73;1.63;;;;;;;-145.18;100.00;60484.78;5015026;28;20034;-67
2023/04/04 00:34:53;;;;;;;6.97;1.80;;;;;;;-145.18;100.00;60484.78;5013529;28;20117;-67
2023/04/04 00:37:19;;;;;;;5.57;2.00;;;;;;;-145.18;100.00;60484.78;5012186;28;20083;-67
2023/04/04 00:39:44;;;;;;;4.97;2.30;;;;;;;-145.18;100.00;60484.78;5012707;28;20466;-68
2023/04/04 00:42:10;;;;;;;10.77;2.17;;;;;;;-145.18;100.00;60484.78;5013499;28;20033;-68
2023/04/04 00:44:35;;;;;;;6.97;1.90;;;;;;;-145.18;100.00;60484.78;5012781;28;20064;-67
2023/04/04 00:47:03;;;;;;;7.27;1.90;;;;;;;-145.18;100.00;60484.78;5010019;28;20462;-67
2023/04/04 00:49:28;;;;;;;6.83;1.97;;;;;;;-145.18;100.00;60484.78;5040063;28;20025;-68
2023/04/04 00:51:54;;;;;;;6.33;2.10;;;;;;;-145.18;100.00;60484.78;5010969;28;20052;-67
2023/04/04 00:54:19;;;;;;;5.30;1.93;;;;;;;-145.18;100.00;60484.78;5012808;28;20043;-68
2023/04/04 00:56:46;;;;;;;8.33;2.23;;;;;;;-145.18;100.00;60484.78;5013140;28;20536;-68
2023/04/04 00:59:12;;;;;;;7.83;2.23;;;;;;;-145.18;100.00;60484.78;5012040;28;20030;-68
2023/04/04 01:04:12;;;;;;;4.30;1.90;;;;;;;-145.18;100.00;60484.78;5005640;28;20053;-63
2023/04/04 01:06:38;;;;;;;4.77;1.90;;;;;;;-145.18;100.00;60484.78;5012045;28;20516;-62
2023/04/04 01:09:04;;;;;;;4.03;1.93;;;;;;;-145.18;100.00;60484.78;5012234;28;20398;-62
2023/04/04 01:11:30;;;;;;;4.50;2.13;;;;;;;-145.18;100.00;60484.78;5012511;28;20036;-62
2023/04/04 01:13:56;;;;;;;4.90;1.97;;;;;;;-145.18;100.00;60484.78;5011928;28;20034;-62
2023/04/04 01:16:22;;;;;;;5.37;2.30;;;;;;;-145.18;100.00;60484.78;5012485;28;20034;-62
2023/04/04 01:18:49;;;;;;;5.17;1.97;;;;;;;-145.18;100.00;60484.78;5010291;28;20480;-62
2023/04/04 01:21:20;;;;;;;6.93;2.17;;;;;;;-145.18;100.00;60484.78;5012808;28;20038;-63
2023/04/04 01:24:01;;;;;;;7.22;2.63;;;;;;;-145.18;100.00;60484.78;5011607;28;20129;-62
2023/04/04 01:26:27;;;;;;;6.17;2.13;;;;;;;-145.18;100.00;60484.78;5013125;28;20033;-63
2023/04/04 01:28:53;;;;;;;6.47;2.40;;;;;;;-145.18;100.00;60484.78;5011965;28;20022;-63
2023/04/04 01:31:36;;;;;;;6.57;2.23;;;;;;;-145.18;100.00;60484.78;5011827;28;20356;-63
2023/04/04 01:34:16;;;;;;;4.77;1.90;;;;;;;-145.18;100.00;60484.78;5012404;28;20052;-62
2023/04/04 01:37:12;;;;;;;7.73;2.47;;;;;;;-145.18;100.00;60484.78;5012492;28;20281;-62
2023/04/04 01:39:45;;;;;;;6.50;2.17;;;;;;;-145.18;100.00;60484.78;5007208;28;20277;-62
2023/04/04 01:42:12;;;;;;;6.80;2.00;;;;;;;-145.18;100.00;60484.78;5011013;28;20296;-62
2023/04/04 01:44:38;;;;;;;7.37;3.00;;;;;;;-145.18;100.00;60484.78;5009872;28;20363;-62
2023/04/04 01:47:09;;;;;;;7.27;2.10;;;;;;;-145.18;100.00;60484.78;5014963;28;20370;-62
2023/04/04 01:49:35;;;;;;;8.02;2.58;;;;;;;-145.18;100.00;60484.78;5009013;28;20034;-63
2023/04/04 01:52:01;;;;;;;4.47;2.10;;;;;;;-145.18;100.00;60484.78;5009792;28;20044;-63
2023/04/04 01:54:27;;;;;;;6.60;2.20;;;;;;;-145.18;100.00;60484.78;5013646;28;20395;-63
2023/04/04 01:56:52;;;;;;;8.50;2.40;;;;;;;-145.18;100.00;60484.78;5009362;28;20268;-62
2023/04/04 01:59:18;;;;;;;5.40;2.33;;;;;;;-145.18;100.00;60484.78;5009822;28;20432;-63
2023/04/04 02:01:44;;;;;;;7.17;2.53;;;;;;;-145.18;100.00;60484.78;5009988;28;20560;-62
2023/04/04 02:04:11;;;;;;;6.73;2.60;;;;;;;-145.18;100.00;60484.78;5007604;28;20029;-63
2023/04/04 02:06:37;;;;;;;6.23;2.23;;;;;;;-145.18;100.00;60484.78;5009079;28;20466;-62
2023/04/04 02:09:03;;;;;;;5.73;2.33;;;;;;;-145.18;100.00;60484.78;5010107;28;20321;-62
2023/04/04 02:11:28;;;;;;;6.87;2.40;;;;;;;-145.18;100.00;60484.78;5009817;28;20610;-62
2023/04/04 02:13:54;;;;;;;4.40;2.03;;;;;;;-145.18;100.00;60484.78;5008323;28;20033;-63
2023/04/04 02:16:19;;;;;;;8.33;2.37;;;;;;;-145.18;100.00;60484.78;5011338;28;20026;-63
2023/04/04 02:18:45;;;;;;;5.47;1.93;;;;;;;-145.18;100.00;60484.78;5011497;28;20030;-63
2023/04/04 02:21:11;;;;;;;7.13;2.40;;;;;;;-145.18;100.00;60484.78;5010880;28;20030;-62
2023/04/04 02:23:37;;;;;;;8.77;2.20;;;;;;;-145.18;100.00;60484.78;5015939;28;20037;-62
2023/04/04 02:26:03;;;;;;;6.53;2.30;;;;;;;-145.18;100.00;60484.78;5011157;28;20104;-62
2023/04/04 02:28:30;;;;;;;8.17;2.47;;;;;;;-145.18;100.00;60484.78;5010942;28;20169;-63
2023/04/04 02:31:00;;;;;;;9.30;3.33;;;;;;;-145.18;100.00;60484.78;5008525;28;20393;-62
2023/04/04 02:33:26;;;;;;;10.33;2.50;;;;;;;-145.18;100.00;60484.78;5011371;28;20350;-62
2023/04/04 02:35:51;;;;;;;8.23;2.30;;;;;;;-145.18;100.00;60484.78;5011676;28;20300;-62
2023/04/04 02:38:16;;;;;;;8.33;2.50;;;;;;;-145.18;100.00;60484.78;5011081;28;20058;-63
2023/04/04 02:40:44;;;;;;;9.50;2.83;;;;;;;-145.18;100.00;60484.78;5011937;28;20030;-63
2023/04/04 02:43:10;;;;;;;7.63;2.50;;;;;;;-145.18;100.00;60484.78;5011487;28;20088;-63
2023/04/04 02:45:36;;;;;;;6.90;2.70;;;;;;;-145.18;100.00;60484.78;5010600;28;20292;-69
2023/04/04 02:48:02;;;;;;;8.60;2.57;;;;;;;-145.18;100.00;60484.78;5012088;28;20034;-68
2023/04/04 02:50:28;;;;;;;6.43;2.70;;;;;;;-145.18;100.00;60484.78;5011413;28;20030;-69
2023/04/04 02:52:58;;;;;;;7.40;3.00;;;;;;;-145.18;100.00;60484.78;5015589;28;20779;-69
2023/04/04 02:55:24;;;;;;;10.03;3.30;;;;;;;-145.18;100.00;60484.78;5015769;28;20571;-68
2023/04/04 02:57:51;;;;;;;8.67;2.97;;;;;;;-145.18;100.00;60484.78;5015171;28;20312;-68
2023/04/04 03:00:17;;;;;;;6.57;2.63;;;;;;;-145.18;100.00;60484.78;5013287;28;20716;-69
2023/04/04 03:02:42;;;;;;;7.77;2.80;;;;;;;-145.18;100.00;60484.78;5013255;28;20277;-68
2023/04/04 03:05:08;;;;;;;7.97;2.77;;;;;;;-145.18;100.00;60484.78;5015051;28;20740;-69
2023/04/04 03:07:33;;;;;;;6.33;2.80;;;;;;;-145.18;100.00;60484.78;5015121;28;20045;-68
2023/04/04 03:09:59;;;;;;;7.73;2.80;;;;;;;-145.18;100.00;60484.78;5013693;28;20036;-68
2023/04/04 03:12:26;;;;;;;6.33;2.87;;;;;;;-145.18;100.00;60484.78;5014176;28;20153;-68
2023/04/04 03:14:52;;;;;;;10.90;2.70;;;;;;;-145.18;100.00;60484.78;5012407;28;20491;-68
2023/04/04 03:17:17;;;;;;;8.03;3.03;;;;;;;-145.18;100.00;60484.78;5013563;28;20284;-68
2023/04/04 03:19:43;;;;;;;8.40;2.73;;;;;;;-145.18;100.00;60484.78;5016130;28;20030;-68
2023/04/04 03:22:09;;;;;;;7.07;2.77;;;;;;;-145.18;100.00;60484.78;5011370;28;20105;-68
2023/04/04 03:24:35;;;;;;;10.57;3.00;;;;;;;-145.18;100.00;60484.78;5015586;28;20308;-69
2023/04/04 03:27:00;;;;;;;7.80;3.00;;;;;;;-145.18;100.00;60484.78;5019810;28;20109;-68
2023/04/04 03:29:26;;;;;;;8.47;3.00;;;;;;;-145.18;100.00;60484.78;5015021;28;20033;-68
2023/04/04 03:31:51;;;;;;;10.43;3.20;;;;;;;-145.18;100.00;60484.78;5016023;28;20033;-69
2023/04/04 03:34:17;;;;;;;5.80;2.63;;;;;;;-145.18;100.00;60484.78;5014110;28;20537;-69
2023/04/04 03:36:42;;;;;;;6.07;2.70;;;;;;;-145.18;100.00;60484.78;5015034;28;20032;-69
2023/04/04 03:39:08;;;;;;;10.57;3.37;;;;;;;-145.18;100.00;60484.78;5015234;28;20367;-68
2023/04/04 03:41:34;;;;;;;8.60;3.37;;;;;;;-145.18;100.00;60484.78;5013706;28;20060;-68
2023/04/04 03:43:59;;;;;;;9.20;3.10;;;;;;;-145.18;100.00;60484.78;5012746;28;20040;-68
2023/04/04 03:46:25;;;;;;;8.87;3.40;;;;;;;-145.18;100.00;60484.78;5017098;28;20280;-68
2023/04/04 03:48:51;;;;;;;7.17;3.30;;;;;;;-145.18;100.00;60484.78;5011782;28;20037;-68
2023/04/04 03:51:26;;;;;;;9.27;3.10;;;;;;;-145.18;100.00;60484.78;5017420;28;20076;-69
2023/04/04 03:53:52;;;;;;;20.70;3.93;;;;;;;-145.18;100.00;60484.78;5014982;28;20481;-69
2023/04/04 03:56:17;;;;;;;9.20;3.30;;;;;;;-145.18;100.00;60484.78;5013784;28;20291;-69
2023/04/04 03:58:43;;;;;;;11.73;3.50;;;;;;;-145.18;100.00;60484.78;5013704;28;20480;-68
2023/04/04 04:01:09;;;;;;;9.97;2.83;;;;;;;-145.18;100.00;60484.78;5013107;28;20113;-68
2023/04/04 04:03:34;;;;;;;7.10;3.10;;;;;;;-145.18;100.00;60484.78;5011837;28;20401;-68
2023/04/04 04:05:59;;;;;;;8.53;3.13;;;;;;;-145.18;100.00;60484.78;5013994;28;20083;-68
2023/04/04 04:08:25;;;;;;;10.27;3.10;;;;;;;-145.18;100.00;60484.78;5014262;28;20034;-69
2023/04/04 04:10:51;;;;;;;8.77;3.30;;;;;;;-145.18;100.00;60484.78;5011595;28;20105;-68
2023/04/04 04:13:16;;;;;;;12.47;3.20;;;;;;;-145.18;100.00;60484.78;5011412;28;20486;-68
2023/04/04 04:15:42;;;;;;;6.13;2.60;;;;;;;-145.18;100.00;60484.78;5010917;28;20030;-68
2023/04/04 04:18:07;;;;;;;6.87;3.00;;;;;;;-145.18;100.00;60484.78;5013005;28;20026;-69
2023/04/04 04:20:32;;;;;;;7.33;3.10;;;;;;;-145.18;100.00;60484.78;5011914;28;20462;-68
2023/04/04 04:22:58;;;;;;;13.27;3.30;;;;;;;-145.18;100.00;60484.78;5011763;28;20071;-69
2023/04/04 04:25:24;;;;;;;11.00;3.27;;;;;;;-145.18;100.00;60484.78;5010575;28;20371;-68
2023/04/04 04:27:49;;;;;;;6.93;2.90;;;;;;;-145.18;100.00;60484.78;5011900;28;20486;-68
2023/04/04 04:30:15;;;;;;;7.03;3.03;;;;;;;-145.18;100.00;60484.78;5008480;28;20045;-68
2023/04/04 04:32:41;;;;;;;9.77;2.90;;;;;;;-145.18;100.00;60484.78;5011579;28;20490;-68
2023/04/04 04:35:07;;;;;;;8.17;2.93;;;;;;;-145.18;100.00;60484.78;5009556;28;20049;-69
2023/04/04 04:37:33;;;;;;;8.80;2.90;;;;;;;-145.18;100.00;60484.78;5014206;28;20076;-69
2023/04/04 04:40:00;;;;;;;8.17;3.13;;;;;;;-145.18;100.00;60484.78;5008548;28;20685;-68
2023/04/04 04:42:26;;;;;;;8.53;3.20;;;;;;;-145.18;100.00;60484.78;5011741;28;20100;-69
2023/04/04 04:44:52;;;;;;;8.47;3.33;;;;;;;-145.18;100.00;60484.78;5014978;28;20364;-69
2023/04/04 04:47:17;;;;;;;9.00;3.37;;;;;;;-145.18;100.00;60484.78;5013697;28;20624;-68
2023/04/04 04:49:45;;;;;;;7.57;3.40;;;;;;;-145.18;100.00;60484.78;5007168;28;20108;-69
2023/04/04 04:52:10;;;;;;;11.40;3.40;;;;;;;-145.18;100.00;60484.78;5011854;28;20033;-69
2023/04/04 04:54:36;;;;;;;12.70;3.50;;;;;;;-145.18;100.00;60484.78;5014301;28;20689;-69
2023/04/04 04:57:01;;;;;;;8.17;3.87;;;;;;;-145.18;100.00;60484.78;5013210;28;20030;-69
2023/04/04 04:59:28;;;;;;;9.97;4.03;;;;;;;-145.18;100.00;60484.78;5009474;28;20026;-69
2023/04/04 05:01:53;;;;;;;15.20;4.23;;;;;;;-145.18;100.00;60484.78;5010971;28;20837;-69
2023/04/04 05:04:19;;;;;;;10.20;3.80;;;;;;;-145.18;100.00;60484.78;5011069;28;20293;-69
2023/04/04 05:06:44;;;;;;;11.47;4.27;;;;;;;-145.18;100.00;60484.78;5007301;28;20624;-68
2023/04/04 05:09:10;;;;;;;8.07;3.90;;;;;;;-145.18;100.00;60484.78;5010014;28;20030;-69
2023/04/04 05:11:35;;;;;;;7.97;3.60;;;;;;;-145.18;100.00;60484.78;5011813;28;20030;-69
2023/04/04 05:14:01;;;;;;;5.83;3.20;;;;;;;-145.18;100.00;60484.78;5009798;28;20042;-69
2023/04/04 05:16:26;;;;;;;14.00;3.40;;;;;;;-145.18;100.00;60484.78;5011228;28;20434;-69
2023/04/04 05:18:52;;;;;;;8.57;3.37;;;;;;;-145.18;100.00;60484.78;5012526;28;20140;-69
2023/04/04 05:21:18;;;;;;;8.03;3.03;;;;;;;-145.18;100.00;60484.78;5015657;28;20120;-69
2023/04/04 05:23:44;;;;;;;6.63;2.97;;;;;;;-145.18;100.00;60484.78;5007135;28;20068;-69
2023/04/04 05:26:09;;;;;;;8.50;2.93;;;;;;;-145.18;100.00;60484.78;5010571;28;20308;-69
2023/04/04 05:28:35;;;;;;;8.53;2.60;;;;;;;-145.18;100.00;60484.78;5008958;28;20034;-69
2023/04/04 05:31:01;;;;;;;7.67;3.13;;;;;;;-145.18;100.00;60484.78;5011856;28;20038;-69
2023/04/04 05:33:26;;;;;;;8.23;2.60;;;;;;;-145.18;100.00;60484.78;5013478;28;20118;-69
2023/04/04 05:35:52;;;;;;;6.60;2.73;;;;;;;-145.18;100.00;60484.78;5012963;28;20033;-69
2023/04/04 05:38:17;;;;;;;9.80;3.03;;;;;;;-145.18;100.00;60484.78;5011671;28;20037;-69
2023/04/04 05:40:44;;;;;;;7.37;2.73;;;;;;;-145.18;100.00;60484.78;5008783;28;20418;-69
2023/04/04 05:43:09;;;;;;;7.90;3.27;;;;;;;-145.18;100.00;60484.78;5009048;28;20030;-69
2023/04/04 05:45:35;;;;;;;8.80;2.80;;;;;;;-145.18;100.00;60484.78;5012175;28;20347;-68
2023/04/04 05:48:01;;;;;;;10.50;3.10;;;;;;;-145.18;100.00;60484.78;5012021;28;20429;-69
2023/04/04 05:50:26;;;;;;;8.73;2.70;;;;;;;-145.18;100.00;60484.78;5016078;28;21384;-69
2023/04/04 05:52:53;;;;;;;7.47;2.70;;;;;;;-145.18;100.00;60484.78;5013114;28;20030;-69
2023/04/04 05:55:19;;;;;;;7.50;2.80;;;;;;;-145.18;100.00;60484.78;5013119;28;20112;-68
2023/04/04 05:57:48;;;;;;;10.87;2.93;;;;;;;-145.18;100.00;60484.78;5012600;28;20153;-68
2023/04/04 06:00:14;;;;;;;7.03;2.60;;;;;;;-145.18;100.00;60484.78;5013172;28;20069;-68
2023/04/04 06:02:40;;;;;;;8.67;3.03;;;;;;;-145.18;100.00;60484.78;5011690;28;20025;-67
2023/04/04 06:05:07;;;;;;;7.57;2.73;;;;;;;-145.18;100.00;60484.78;5014243;28;20045;-67
2023/04/04 06:07:32;;;;;;;12.37;2.70;;;;;;;-145.18;100.00;60484.78;5012575;28;20076;-65
2023/04/04 06:09:58;;;;;;;6.30;2.33;;;;;;;-145.18;100.00;60484.78;5012333;28;20037;-65
2023/04/04 06:12:23;;;;;;;6.80;2.40;;;;;;;-145.18;100.00;60484.78;5012450;28;20034;-68
2023/04/04 06:14:49;;;;;;;5.33;2.30;;;;;;;-145.18;100.00;60484.78;5011781;28;20041;-67
2023/04/04 06:17:14;;;;;;;11.27;2.60;;;;;;;-145.18;100.00;60484.78;5011854;28;20560;-68
2023/04/04 06:19:40;;;;;;;9.17;2.77;;;;;;;-145.18;100.00;60484.78;5015063;28;20052;-67
2023/04/04 06:22:05;;;;;;;8.27;2.40;;;;;;;-145.18;100.00;60484.78;5013125;28;20474;-67
2023/04/04 06:24:31;;;;;;;7.27;2.20;;;;;;;-145.18;100.00;60484.78;5012797;28;20397;-66
2023/04/04 06:26:56;;;;;;;7.87;2.53;;;;;;;-145.18;100.00;60484.78;5015640;28;20164;-67
2023/04/04 06:29:23;;;;;;;7.70;2.33;;;;;;;-145.18;100.00;60484.78;5016372;28;20032;-65
2023/04/04 06:31:48;;;;;;;6.23;2.30;;;;;;;-145.18;100.00;60484.78;5014763;28;20109;-65
2023/04/04 06:34:14;;;;;;;6.37;2.20;;;;;;;-145.18;100.00;60484.78;5015571;28;20467;-65
2023/04/04 06:36:39;;;;;;;6.83;2.30;;;;;;;-145.18;100.00;60484.78;5019367;28;20117;-64
2023/04/04 06:39:05;;;;;;;8.60;2.20;;;;;;;-145.18;100.00;60484.78;5016005;28;20490;-65
2023/04/04 06:41:30;;;;;;;6.83;2.40;;;;;;;-145.18;100.00;60484.78;5016006;28;20088;-65
2023/04/04 06:43:57;;;;;;;6.97;2.67;;;;;;;-145.18;100.00;60484.78;5016223;28;20033;-65
2023/04/04 06:46:22;;;;;;;9.30;3.23;;;;;;;-145.18;100.00;60484.78;5015681;28;20113;-65
2023/04/04 06:48:48;;;;;;;7.40;2.63;;;;;;;-145.18;100.00;60484.78;5015147;28;20113;-65
2023/04/04 06:51:13;;;;;;;8.00;2.10;;;;;;;-145.18;100.00;60484.78;5019463;28;20092;-65
2023/04/04 06:53:39;;;;;;;5.43;2.13;;;;;;;-145.18;100.00;60484.78;5016531;28;20048;-65
2023/04/04 06:56:05;;;;;;;5.73;2.20;;;;;;;-145.18;100.00;60484.78;5015695;28;20037;-65
2023/04/04 06:58:31;;;;;;;6.07;2.30;;;;;;;-145.18;100.00;60484.78;5015958;28;20018;-65
2023/04/04 07:00:58;;;;;;;5.17;2.30;;;;;;;-145.18;100.00;60484.78;5015757;28;20057;-65
2023/04/04 07:03:24;;;;;;;6.30;2.20;;;;;;;-145.18;100.00;60484.78;5013821;28;20473;-66
2023/04/04 07:05:50;;;;;;;7.40;2.50;;;;;;;-145.18;100.00;60484.78;5017977;28;20034;-65
2023/04/04 07:08:15;;;;;;;4.50;2.10;;;;;;;-145.18;100.00;60484.78;5016779;28;20087;-66
2023/04/04 07:10:41;;;;;;;6.67;2.47;;;;;;;-145.18;100.00;60484.78;5014991;28;20037;-65
2023/04/04 07:13:06;;;;;;;6.67;1.90;;;;;;;-145.18;100.00;60484.78;5015882;28;20030;-66
2023/04/04 07:15:32;;;;;;;7.67;2.20;;;;;;;-145.18;100.00;60484.78;5014856;28;20045;-66
2023/04/04 07:17:57;;;;;;;6.73;2.33;;;;;;;-145.18;100.00;60484.78;5014855;28;20056;-66
2023/04/04 07:20:23;;;;;;;4.73;2.00;;;;;;;-145.18;100.00;60484.78;5015418;28;20050;-67
2023/04/04 07:22:49;;;;;;;6.33;2.00;;;;;;;-145.18;100.00;60484.78;5017123;28;20048;-67
2023/04/04 07:25:14;;;;;;;5.07;2.27;;;;;;;-145.18;100.00;60484.78;5018771;28;20037;-67
2023/04/04 07:27:40;;;;;;;6.70;2.30;;;;;;;-145.18;100.00;60484.78;5015080;28;20060;-67
2023/04/04 07:30:07;;;;;;;6.40;2.13;;;;;;;-145.18;100.00;60484.78;5014868;28;20034;-66
2023/04/04 07:32:32;;;;;;;5.83;2.20;;;;;;;-145.18;100.00;60484.78;5014509;28;20449;-66
2023/04/04 07:34:58;;;;;;;8.20;2.17;;;;;;;-145.18;100.00;60484.78;5014516;28;20034;-66
2023/04/04 07:37:25;;;;;;;8.27;2.17;;;;;;;-145.18;100.00;60484.78;5014916;28;20044;-65
2023/04/04 07:39:51;;;;;;;6.87;1.93;;;;;;;-145.18;100.00;60484.78;5014954;28;20486;-66
2023/04/04 07:42:21;;;;;;;7.60;2.10;;;;;;;-145.18;100.00;60484.78;5014965;28;20490;-65
2023/04/04 07:44:48;;;;;;;4.50;2.27;;;;;;;-145.18;100.00;60484.78;5014797;28;20072;-66
2023/04/04 07:47:13;;;;;;;5.67;1.90;;;;;;;-145.18;100.00;60484.78;5015196;28;20029;-66
2023/04/04 07:49:39;;;;;;;5.67;2.17;;;;;;;-145.18;100.00;60484.78;5015198;28;20394;-65
2023/04/04 07:52:04;;;;;;;7.30;2.13;;;;;;;-145.18;100.00;60484.78;5018117;28;20061;-66
2023/04/04 07:54:30;;;;;;;6.97;2.10;;;;;;;-145.18;100.00;60484.78;5014971;28;20058;-66
2023/04/04 07:56:55;;;;;;;8.03;2.20;;;;;;;-145.18;100.00;60484.78;5014311;28;20189;-66
2023/04/04 07:59:21;;;;;;;5.93;2.10;;;;;;;-145.18;100.00;60484.78;5015208;28;20022;-66
2023/04/04 08:01:46;;;;;;;5.70;2.05;;;;;;;-145.18;100.00;60484.78;5015141;28;20095;-65
2023/04/04 08:04:11;;;;;;;5.95;1.90;;;;;;;-145.18;100.00;60484.78;5013235;28;20045;-65
2023/04/04 08:06:37;;;;;;;5.25;2.08;;;;;;;-145.18;100.00;60484.78;5014372;28;20489;-66
2023/04/04 08:09:03;;;;;;;5.67;1.93;;;;;;;-145.18;100.00;60484.78;5016493;28;20453;-65
2023/04/04 08:11:29;;;;;;;4.30;2.10;;;;;;;-145.18;100.00;60484.78;5014205;28;20065;-66
2023/04/04 08:13:54;;;;;;;6.63;2.47;;;;;;;-145.18;100.00;60484.78;5014244;28;20062;-65
2023/04/04 08:16:20;;;;;;;6.93;2.10;;;;;;;-145.18;100.00;60484.78;5013067;28;20059;-66
2023/04/04 08:18:45;;;;;;;5.20;2.17;;;;;;;-145.18;100.00;60484.78;5014649;28;20451;-65
2023/04/04 08:21:11;;;;;;;7.20;2.40;;;;;;;-145.18;100.00;60484.78;5014153;28;20058;-65
2023/04/04 08:23:36;;;;;;;8.40;2.50;;;;;;;-145.18;100.00;60484.78;5015452;28;20037;-66
2023/04/04 08:26:02;;;;;;;6.47;2.63;;;;;;;-145.18;100.00;60484.78;5014278;28;20397;-66
2023/04/04 08:28:27;;;;;;;6.07;2.10;;;;;;;-145.18;100.00;60484.78;5012743;28;20038;-66
2023/04/04 08:30:54;;;;;;;5.20;1.83;;;;;;;-145.18;100.00;60484.78;5013928;28;20038;-66
2023/04/04 08:33:22;;;;;;;6.03;2.13;;;;;;;-145.18;100.00;60484.78;5013865;28;20037;-66
2023/04/04 08:35:47;;;;;;;6.10;1.87;;;;;;;-145.18;100.00;60484.78;5013843;28;20061;-66
2023/04/04 08:38:13;;;;;;;5.37;2.10;;;;;;;-145.18;100.00;60484.78;5012817;28;20057;-66
2023/04/04 08:40:39;;;;;;;4.07;1.93;;;;;;;-145.18;100.00;60484.78;5013354;28;20113;-66
2023/04/04 08:43:05;;;;;;;5.13;1.90;;;;;;;-145.18;100.00;60484.78;5014388;28;20405;-66
2023/04/04 08:45:32;;;;;;;5.60;2.03;;;;;;;-145.18;100.00;60484.78;5014909;28;20049;-66
2023/04/04 08:48:00;;;;;;;6.77;2.33;;;;;;;-145.18;100.00;60484.78;5012773;28;20036;-66
2023/04/04 08:50:27;;;;;;;4.23;1.63;;;;;;;-145.18;100.00;60484.78;5016260;28;20491;-66
2023/04/04 08:52:54;;;;;;;6.77;2.20;;;;;;;-145.18;100.00;60484.78;5013288;28;20108;-65
2023/04/04 08:55:20;;;;;;;6.20;1.95;;;;;;;-145.18;100.00;60484.78;5014448;28;20037;-66
2023/04/04 08:57:45;;;;;;;6.35;2.25;;;;;;;-145.18;100.00;60484.78;5013676;28;20116;-67
2023/04/04 09:00:12;;;;;;;7.05;2.38;;;;;;;-145.18;100.00;60484.78;5013600;28;20109;-66
2023/04/04 09:03:08;;;;;;;7.28;1.88;;;;;;;-145.18;100.00;60484.78;5012224;28;20029;-66
2023/04/04 09:05:34;;;;;;;7.05;2.17;;;;;;;-145.18;100.00;60484.78;4979732;28;20132;-67
2023/04/04 09:08:00;;;;;;;5.57;1.95;;;;;;;-145.18;100.00;60484.78;5013180;28;20040;-66
2023/04/04 09:10:26;;;;;;;6.30;1.77;;;;;;;-145.18;100.00;60484.78;5012955;28;20482;-67
2023/04/04 09:12:53;;;;;;;6.20;1.90;;;;;;;-145.18;100.00;60484.78;5012446;28;20116;-66
2023/04/04 09:15:19;;;;;;;8.35;2.35;;;;;;;-145.18;100.00;60484.78;5012995;28;20030;-67
2023/04/04 09:17:45;;;;;;;6.68;1.80;;;;;;;-145.18;100.00;60484.78;5014009;28;20037;-67
2023/04/04 09:20:39;;;;;;;6.13;1.75;;;;;;;-145.18;100.00;60484.78;5015957;28;20042;-66
2023/04/04 09:23:13;;;;;;;5.97;2.13;;;;;;;-145.18;100.00;60484.78;5013035;28;20038;-66
2023/04/04 09:25:57;;;;;;;5.47;1.83;;;;;;;-145.18;100.00;60484.78;5016150;28;20085;-67
2023/04/04 09:28:23;;;;;;;6.07;2.00;;;;;;;-145.18;100.00;60484.78;5012934;28;20030;-66
2023/04/04 09:30:50;;;;;;;7.93;1.90;;;;;;;-145.18;100.00;60484.78;5012936;28;20477;-66
2023/04/04 09:33:17;;;;;;;5.93;1.80;;;;;;;-145.18;100.00;60484.78;5013420;28;20057;-67
2023/04/04 09:35:51;;;;;;;6.70;2.25;;;;;;;-145.18;100.00;60484.78;5013076;28;20040;-66
2023/04/04 09:38:17;;;;;;;5.78;1.58;;;;;;;-145.18;100.00;60484.78;5012403;28;20038;-66
2023/04/04 09:40:44;;;;;;;5.35;2.00;;;;;;;-145.18;100.00;60484.78;5015244;28;20087;-67
2023/04/04 09:43:11;;;;;;;6.57;1.65;;;;;;;-145.18;100.00;60484.78;5013468;28;20060;-67
2023/04/04 09:45:39;;;;;;;6.35;2.33;;;;;;;-145.18;100.00;60484.78;5012569;28;20061;-67
2023/04/04 09:48:09;;;;;;;5.72;1.60;;;;;;;-145.18;100.00;60484.78;5016298;28;20046;-67
2023/04/04 09:50:35;;;;;;;4.45;1.80;;;;;;;-145.18;100.00;60484.78;5013372;28;20441;-67
2023/04/04 09:53:01;;;;;;;5.13;2.03;;;;;;;-145.18;100.00;60484.78;5013197;28;20065;-67
2023/04/04 09:55:36;;;;;;;4.70;1.67;;;;;;;-145.18;100.00;60484.78;5012473;28;20115;-67
2023/04/04 09:58:26;;;;;;;7.00;1.90;;;;;;;-145.18;100.00;60484.78;5013263;28;20038;-67
2023/04/04 10:00:54;;;;;;;5.47;1.77;;;;;;;-145.18;100.00;60484.78;4994452;28;20042;-67
2023/04/04 10:03:22;;;;;;;4.60;1.80;;;;;;;-145.18;100.00;60484.78;4994330;28;20406;-68
2023/04/04 10:05:54;;;;;;;4.57;1.70;;;;;;;-145.18;100.00;60484.78;4994459;28;20498;-67
2023/04/04 10:08:23;;;;;;;5.47;2.10;;;;;;;-145.18;100.00;60484.78;4995514;28;20482;-67
2023/04/04 10:10:55;;;;;;;5.53;1.70;;;;;;;-145.18;100.00;60484.78;4998443;28;20061;-68
2023/04/04 10:13:39;;;;;;;4.85;1.50;;;;;;;-145.18;100.00;60484.78;4994395;28;20168;-67
2023/04/04 10:16:06;;;;;;;4.38;1.80;;;;;;;-145.18;100.00;60484.78;4995121;28;20497;-68
2023/04/04 10:18:35;;;;;;;4.80;1.98;;;;;;;-145.18;100.00;60484.78;4995297;28;20498;-68
2023/04/04 10:21:03;;;;;;;7.28;1.95;;;;;;;-145.18;100.00;60484.78;4993568;28;20030;-68
2023/04/04 10:23:29;;;;;;;5.47;1.88;;;;;;;-145.18;100.00;60484.78;4995272;28;20042;-68
2023/04/04 10:25:58;;;;;;;7.40;2.00;;;;;;;-145.18;100.00;60484.78;4987427;28;20046;-69
2023/04/04 10:28:25;;;;;;;5.82;2.17;;;;;;;-145.18;100.00;60484.78;4997397;28;20030;-69
2023/04/04 10:31:20;;;;;;;6.97;1.83;;;;;;;-145.18;100.00;60484.78;4990565;28;20121;-69
2023/04/04 10:34:18;;;;;;;3.58;1.75;;;;;;;-145.18;100.00;60484.78;4994377;28;20038;-68
2023/04/04 10:36:48;;;;;;;6.63;2.00;;;;;;;-145.18;100.00;60484.78;4968904;28;20061;-68
2023/04/04 10:39:22;;;;;;;6.05;1.70;;;;;;;-145.18;100.00;60484.78;5016743;28;20030;-69
2023/04/04 10:41:50;;;;;;;5.07;1.85;;;;;;;-145.18;100.00;60484.78;5015200;28;20053;-68
2023/04/04 10:44:32;;;;;;;5.97;2.40;;;;;;;-145.18;100.00;60484.78;5015702;28;20044;-68
2023/04/04 10:47:07;;;;;;;5.70;1.90;;;;;;;-145.18;100.00;60484.78;5015997;28;20109;-68
2023/04/04 10:49:33;;;;;;;6.27;1.80;;;;;;;-145.18;100.00;60484.78;5016426;28;20121;-68
2023/04/04 10:51:59;;;;;;;5.87;2.10;;;;;;;-145.18;100.00;60484.78;5020879;28;20100;-69
2023/04/04 10:54:26;;;;;;;6.90;2.20;;;;;;;-145.18;100.00;60484.78;5013352;28;20094;-69
2023/04/04 10:56:54;;;;;;;5.13;2.17;;;;;;;-145.18;100.00;60484.78;5015025;28;20030;-69
2023/04/04 10:59:19;;;;;;;7.40;2.20;;;;;;;-145.18;100.00;60484.78;5018673;28;20021;-69
2023/04/04 11:02:02;;;;;;;6.43;2.20;;;;;;;-145.18;100.00;60484.78;5015137;28;20117;-68
2023/04/04 11:04:30;;;;;;;6.80;2.37;;;;;;;-145.18;100.00;60484.78;5015154;28;20090;-68
2023/04/04 11:07:15;;;;;;;6.63;1.90;;;;;;;-145.18;100.00;60484.78;5017869;28;20037;-68
2023/04/04 11:09:53;;;;;;;5.07;2.30;;;;;;;-145.18;100.00;60484.78;5014966;28;20053;-68
2023/04/04 11:12:27;;;;;;;5.40;2.17;;;;;;;-145.18;100.00;60484.78;5015040;28;20447;-69